Time;durP1;ratioP1;P1;durP2;ratioP2;P2;SDS_P1;SDS_P2;PMS_P1;PMS_P2;Temp;Humidity;BMP_temperature;BMP_pressure;BME280_temperature;BME280_humidity;BME280_pressure;Samples;Min_cycle;Max_cycle;Signal;HPM_P1;HPM_P2
2022/11/24 00:02:02;;;;;;;8.85;6.35;;;10.60;90.40;;;;;;5061976;28;20025;-78
2022/11/24 00:04:28;;;;;;;10.98;7.20;;;10.50;90.40;;;;;;5072227;28;20024;-77
2022/11/24 00:06:54;;;;;;;9.75;6.38;;;10.50;90.40;;;;;;5068323;28;20021;-78
2022/11/24 00:09:19;;;;;;;9.35;5.65;;;10.50;90.40;;;;;;5066630;28;20032;-78
2022/11/24 00:11:45;;;;;;;10.52;6.07;;;10.50;90.40;;;;;;5072698;28;20028;-77
2022/11/24 00:14:11;;;;;;;7.00;5.30;;;10.40;90.50;;;;;;5067644;28;20149;-78
2022/11/24 00:16:37;;;;;;;7.35;5.53;;;10.40;90.50;;;;;;5061256;28;20029;-78
2022/11/24 00:19:07;;;;;;;7.57;5.82;;;10.40;90.60;;;;;;5070070;28;20037;-78
2022/11/24 00:21:34;;;;;;;8.93;5.50;;;10.40;90.60;;;;;;5064031;28;20129;-78
2022/11/24 00:24:00;;;;;;;10.55;6.22;;;10.40;90.40;;;;;;5062346;28;20024;-78
2022/11/24 00:26:31;;;;;;;9.40;5.88;;;10.40;90.40;;;;;;5061955;28;20487;-77
2022/11/24 00:29:01;;;;;;;8.20;5.35;;;10.30;90.50;;;;;;5069093;28;20033;-77
2022/11/24 00:31:29;;;;;;;10.30;5.85;;;10.20;90.60;;;;;;5067755;28;20021;-77
2022/11/24 00:34:00;;;;;;;9.07;5.45;;;10.20;90.60;;;;;;5071971;28;20025;-78
2022/11/24 00:36:28;;;;;;;9.10;5.53;;;10.30;90.60;;;;;;5068872;28;20025;-77
2022/11/24 00:38:56;;;;;;;12.23;6.18;;;10.30;90.60;;;;;;5068193;28;20122;-77
2022/11/24 00:41:24;;;;;;;6.05;4.82;;;10.40;90.50;;;;;;5063014;28;20417;-77
2022/11/24 00:43:50;;;;;;;7.88;5.70;;;10.40;90.50;;;;;;5070212;28;20029;-77
2022/11/24 00:46:16;;;;;;;6.50;4.97;;;10.40;90.30;;;;;;5071354;28;20037;-77
2022/11/24 00:48:41;;;;;;;6.95;4.75;;;10.40;90.40;;;;;;5069626;28;20083;-77
2022/11/24 00:51:09;;;;;;;8.00;4.50;;;10.40;90.40;;;;;;5072395;28;20025;-77
2022/11/24 00:53:35;;;;;;;7.68;4.78;;;10.50;90.40;;;;;;5063279;28;20086;-77
2022/11/24 00:56:04;;;;;;;7.22;4.68;;;10.50;90.30;;;;;;5063682;28;20032;-77
2022/11/24 00:58:31;;;;;;;9.82;5.20;;;10.50;90.20;;;;;;5066124;28;20481;-77
2022/11/24 01:01:07;;;;;;;8.57;4.63;;;10.50;90.00;;;;;;5071837;28;20025;-77
2022/11/24 01:03:33;;;;;;;8.43;4.65;;;10.40;89.90;;;;;;5062628;28;20097;-77
2022/11/24 01:06:04;;;;;;;7.78;4.38;;;10.40;90.10;;;;;;5070417;28;20352;-78
2022/11/24 01:08:30;;;;;;;7.40;4.93;;;10.30;90.20;;;;;;5070026;28;20078;-77
2022/11/24 01:11:09;;;;;;;8.35;5.32;;;10.00;90.40;;;;;;5070081;28;20020;-77
2022/11/24 01:13:35;;;;;;;6.20;4.13;;;9.90;90.60;;;;;;5037414;28;20078;-77
2022/11/24 01:16:01;;;;;;;5.28;4.03;;;9.90;90.60;;;;;;5066247;28;20369;-77
2022/11/24 01:18:27;;;;;;;5.70;4.28;;;10.00;90.60;;;;;;5070193;28;20586;-77
2022/11/24 01:20:52;;;;;;;7.88;4.57;;;10.00;90.60;;;;;;5068508;28;20406;-77
2022/11/24 01:23:18;;;;;;;6.82;4.13;;;10.10;90.60;;;;;;5054071;28;20504;-77
2022/11/24 01:25:44;;;;;;;6.60;4.35;;;10.20;90.60;;;;;;5061400;28;20028;-77
2022/11/24 01:28:09;;;;;;;6.82;5.00;;;10.20;90.50;;;;;;5061752;28;20020;-78
2022/11/24 01:30:35;;;;;;;5.90;4.00;;;10.20;90.20;;;;;;5062233;28;20037;-78
2022/11/24 01:33:00;;;;;;;6.00;4.28;;;10.20;90.40;;;;;;5054413;28;20116;-78
2022/11/24 01:35:26;;;;;;;10.95;5.45;;;10.00;90.40;;;;;;5068288;28;20566;-78
2022/11/24 01:37:52;;;;;;;9.30;6.35;;;10.00;90.50;;;;;;5068887;28;20021;-78
2022/11/24 01:40:17;;;;;;;8.65;4.90;;;9.90;90.50;;;;;;5066894;28;20041;-78
2022/11/24 01:42:49;;;;;;;7.45;5.35;;;9.80;90.60;;;;;;5057559;28;20057;-76
2022/11/24 01:45:39;;;;;;;5.57;4.30;;;9.90;90.60;;;;;;5060987;28;20445;-77
2022/11/24 01:48:06;;;;;;;;;;;9.90;90.60;;;;;;5062210;28;20025;-76
2022/11/24 01:50:33;;;;;;;6.32;4.57;;;10.00;90.70;;;;;;5065444;28;19911;-76
2022/11/24 01:52:59;;;;;;;6.63;4.28;;;10.00;90.70;;;;;;5068948;28;20037;-76
2022/11/24 01:55:33;;;;;;;7.28;5.10;;;10.10;90.50;;;;;;5061593;28;20031;-76
2022/11/24 01:58:23;;;;;;;7.75;4.85;;;10.10;90.60;;;;;;5051774;28;20469;-75
2022/11/24 02:00:49;;;;;;;6.80;4.77;;;10.00;90.40;;;;;;5071149;28;20028;-76
2022/11/24 02:03:21;;;;;;;7.03;5.30;;;9.90;90.50;;;;;;5075090;28;20016;-76
2022/11/24 02:05:58;;;;;;;6.75;5.15;;;9.70;90.90;;;;;;5062771;28;20032;-76
2022/11/24 02:08:54;;;;;;;7.18;5.38;;;9.70;90.90;;;;;;5063928;28;20383;-76
2022/11/24 02:11:22;;;;;;;6.78;4.50;;;9.70;90.90;;;;;;5046789;28;20486;-76
2022/11/24 02:13:50;;;;;;;7.00;5.20;;;9.60;90.90;;;;;;5073432;28;20020;-76
2022/11/24 02:16:16;;;;;;;8.73;5.65;;;9.60;90.90;;;;;;5071413;28;20040;-76
2022/11/24 02:18:42;;;;;;;8.88;5.78;;;9.60;91.10;;;;;;5071413;28;20047;-76
2022/11/24 02:21:10;;;;;;;8.35;6.07;;;9.50;91.20;;;;;;5070865;28;20044;-75
2022/11/24 02:24:03;;;;;;;7.78;5.90;;;9.40;91.30;;;;;;5074789;28;20079;-75
2022/11/24 02:26:41;;;;;;;8.48;5.43;;;9.30;91.50;;;;;;5062495;28;20021;-75
2022/11/24 02:29:08;;;;;;;9.90;5.63;;;9.30;91.40;;;;;;5065938;28;20041;-75
2022/11/24 02:31:34;;;;;;;9.25;6.18;;;9.30;91.40;;;;;;5071271;28;20024;-75
2022/11/24 02:34:00;;;;;;;7.25;5.55;;;9.20;91.60;;;;;;5072518;28;21116;-76
2022/11/24 02:36:26;;;;;;;8.57;6.03;;;9.20;91.60;;;;;;5066077;28;20492;-75
2022/11/24 02:38:51;;;;;;;8.00;5.88;;;9.20;91.60;;;;;;5068769;28;20491;-75
2022/11/24 02:41:20;;;;;;;7.20;5.55;;;9.20;91.50;;;;;;5071477;28;20031;-75
2022/11/24 02:43:55;;;;;;;9.05;5.68;;;9.30;91.40;;;;;;5072447;28;20105;-75
2022/11/24 02:46:20;;;;;;;8.57;6.25;;;9.30;91.30;;;;;;5055772;28;20028;-75
2022/11/24 02:48:46;;;;;;;6.57;5.50;;;9.40;91.20;;;;;;5068881;28;20461;-75
2022/11/24 02:51:12;;;;;;;8.75;6.13;;;9.50;91.20;;;;;;5073146;28;20028;-76
2022/11/24 02:53:38;;;;;;;10.18;6.32;;;9.50;91.20;;;;;;5070677;28;20048;-76
2022/11/24 02:56:04;;;;;;;11.20;6.93;;;9.50;91.10;;;;;;5074031;28;20035;-76
2022/11/24 02:58:29;;;;;;;8.63;5.90;;;9.50;91.00;;;;;;5056025;28;20123;-76
2022/11/24 03:00:56;;;;;;;9.50;6.38;;;9.50;91.10;;;;;;5072969;28;20107;-75
2022/11/24 03:03:23;;;;;;;12.40;5.70;;;9.50;91.10;;;;;;5071653;28;20029;-75
2022/11/24 03:05:49;;;;;;;10.02;6.63;;;9.60;91.10;;;;;;5047500;28;20350;-75
2022/11/24 03:08:15;;;;;;;9.60;6.13;;;9.60;91.00;;;;;;5066108;28;20082;-74
2022/11/24 03:10:41;;;;;;;8.35;5.55;;;9.60;90.90;;;;;;5046839;28;20039;-76
2022/11/24 03:13:07;;;;;;;10.45;6.22;;;9.60;90.90;;;;;;5068402;28;20028;-75
2022/11/24 03:15:37;;;;;;;9.38;5.90;;;9.60;90.80;;;;;;5066550;28;20036;-76
2022/11/24 03:18:03;;;;;;;9.93;6.25;;;9.50;90.80;;;;;;5069738;28;20044;-76
2022/11/24 03:20:29;;;;;;;9.30;5.97;;;9.50;90.90;;;;;;5063858;28;20048;-76
2022/11/24 03:22:55;;;;;;;8.50;5.85;;;9.40;90.90;;;;;;5057554;28;20025;-77
2022/11/24 03:25:21;;;;;;;11.85;6.43;;;9.40;91.00;;;;;;5048570;28;20096;-78
2022/11/24 03:27:47;;;;;;;9.65;7.25;;;9.30;91.00;;;;;;5073315;28;20025;-78
2022/11/24 03:30:14;;;;;;;8.07;6.45;;;9.30;91.00;;;;;;5068294;28;20388;-77
2022/11/24 03:32:40;;;;;;;7.72;6.35;;;9.30;91.00;;;;;;5063072;28;20036;-77
2022/11/24 03:35:07;;;;;;;9.77;7.50;;;9.40;91.30;;;;;;5073723;28;20032;-77
2022/11/24 03:37:33;;;;;;;9.57;6.22;;;9.40;91.10;;;;;;5054888;28;20032;-77
2022/11/24 03:39:58;;;;;;;9.93;6.93;;;9.40;91.00;;;;;;5070815;28;20393;-77
2022/11/24 03:42:24;;;;;;;10.32;6.55;;;9.40;90.90;;;;;;5072617;28;20028;-76
2022/11/24 03:44:50;;;;;;;9.75;6.30;;;9.40;90.90;;;;;;5062862;28;20039;-76
2022/11/24 03:47:15;;;;;;;9.93;6.88;;;9.40;90.90;;;;;;5061954;28;20090;-76
2022/11/24 03:49:41;;;;;;;11.63;7.85;;;9.40;90.90;;;;;;5065003;28;20024;-76
2022/11/24 03:52:07;;;;;;;14.68;8.18;;;9.30;90.90;;;;;;5059662;28;20391;-76
2022/11/24 03:54:33;;;;;;;10.95;7.55;;;9.40;91.00;;;;;;5065702;28;20362;-77
2022/11/24 03:56:58;;;;;;;12.02;7.90;;;9.40;90.90;;;;;;5066941;28;20028;-76
2022/11/24 03:59:24;;;;;;;11.63;8.23;;;9.40;90.90;;;;;;5064706;28;20043;-76
2022/11/24 04:01:50;;;;;;;11.23;6.95;;;9.30;90.80;;;;;;5066280;28;20032;-77
2022/11/24 04:04:15;;;;;;;11.00;7.07;;;9.30;90.80;;;;;;5062326;28;20025;-76
2022/11/24 04:06:41;;;;;;;12.63;7.72;;;9.30;90.90;;;;;;5060800;28;20353;-77
2022/11/24 04:09:07;;;;;;;15.90;8.02;;;9.30;91.00;;;;;;5071896;28;20032;-76
2022/11/24 04:14:18;;;;;;;10.93;6.90;;;9.40;90.90;;;;;;5066092;28;20123;-78
2022/11/24 04:16:44;;;;;;;11.52;6.90;;;9.40;90.80;;;;;;5051200;28;20036;-77
2022/11/24 04:19:09;;;;;;;13.32;6.82;;;9.40;90.70;;;;;;5067271;28;20037;-76
2022/11/24 04:21:35;;;;;;;10.07;6.90;;;9.30;90.70;;;;;;5066819;28;20538;-77
2022/11/24 04:24:01;;;;;;;11.05;6.50;;;9.30;90.80;;;;;;5061133;28;20480;-78
2022/11/24 04:26:26;;;;;;;11.02;6.80;;;9.30;90.70;;;;;;5071354;28;20052;-78
2022/11/24 04:28:52;;;;;;;9.15;6.10;;;9.30;90.60;;;;;;5068040;28;20020;-78
2022/11/24 04:31:19;;;;;;;11.30;6.82;;;9.20;90.70;;;;;;5072013;28;20024;-78
2022/11/24 04:33:45;;;;;;;10.23;6.78;;;9.20;90.80;;;;;;5064735;28;20024;-78
2022/11/24 04:36:10;;;;;;;8.85;5.90;;;9.20;90.80;;;;;;5061863;28;20353;-78
2022/11/24 04:39:01;;;;;;;10.15;6.75;;;9.20;90.80;;;;;;5072800;28;20055;-79
2022/11/24 04:41:27;;;;;;;8.55;6.28;;;9.10;90.80;;;;;;5070524;28;20391;-77
2022/11/24 04:43:53;;;;;;;10.40;7.35;;;9.10;90.80;;;;;;5067548;28;20115;-77
2022/11/24 04:46:18;;;;;;;8.48;5.95;;;9.00;90.90;;;;;;5063231;28;20042;-78
2022/11/24 04:48:44;;;;;;;8.32;5.75;;;9.00;90.90;;;;;;5068499;28;20053;-78
2022/11/24 04:51:12;;;;;;;8.98;6.18;;;9.00;91.00;;;;;;5066289;28;20330;-77
2022/11/24 04:53:38;;;;;;;10.48;6.80;;;8.90;91.00;;;;;;5055777;28;20024;-77
2022/11/24 04:56:05;;;;;;;8.60;5.97;;;8.90;91.00;;;;;;5044694;28;20388;-78
2022/11/24 04:58:30;;;;;;;8.32;6.47;;;9.00;91.00;;;;;;5056648;28;20534;-77
2022/11/24 05:00:56;;;;;;;10.13;6.53;;;8.90;90.90;;;;;;5062824;28;20024;-77
2022/11/24 05:03:22;;;;;;;8.73;5.70;;;8.90;90.90;;;;;;5072276;28;20107;-77
2022/11/24 05:05:48;;;;;;;8.50;5.85;;;8.90;91.00;;;;;;5071481;28;20020;-77
2022/11/24 05:08:13;;;;;;;9.85;6.20;;;8.90;90.90;;;;;;5072719;28;20414;-77
2022/11/24 05:10:39;;;;;;;7.38;5.15;;;8.90;90.90;;;;;;5072089;28;20124;-76
2022/11/24 05:13:12;;;;;;;8.43;5.85;;;8.90;90.90;;;;;;5071028;28;20525;-77
2022/11/24 05:15:39;;;;;;;8.75;6.00;;;8.80;90.80;;;;;;5071533;28;20040;-77
2022/11/24 05:18:07;;;;;;;8.25;5.88;;;8.80;90.80;;;;;;5070665;28;20151;-77
2022/11/24 05:20:33;;;;;;;8.38;6.32;;;8.80;90.80;;;;;;5045500;28;20080;-77
2022/11/24 05:23:03;;;;;;;7.45;5.35;;;8.80;90.80;;;;;;5070629;28;20111;-77
2022/11/24 05:25:30;;;;;;;7.25;5.65;;;8.80;90.70;;;;;;5070820;28;20060;-78
2022/11/24 05:28:02;;;;;;;9.95;6.28;;;8.80;90.70;;;;;;5061918;28;20037;-78
2022/11/24 05:30:28;;;;;;;7.72;5.90;;;8.90;90.80;;;;;;5065561;28;20085;-77
2022/11/24 05:32:54;;;;;;;8.38;6.03;;;8.90;90.60;;;;;;5075439;28;20029;-84
2022/11/24 05:35:26;;;;;;;10.48;6.05;;;8.90;90.60;;;;;;5075717;28;20037;-83
2022/11/24 05:37:52;;;;;;;9.10;5.45;;;8.80;90.60;;;;;;5073207;28;20058;-84
2022/11/24 05:40:17;;;;;;;9.30;5.90;;;8.80;90.60;;;;;;5068581;28;20033;-83
2022/11/24 05:42:44;;;;;;;7.97;5.40;;;8.80;90.50;;;;;;5073578;28;20024;-79
2022/11/24 05:45:16;;;;;;;7.68;5.25;;;8.70;90.50;;;;;;5069900;28;20024;-80
2022/11/24 05:47:42;;;;;;;8.27;6.18;;;8.70;90.60;;;;;;5073285;28;20024;-80
2022/11/24 05:50:10;;;;;;;10.32;5.28;;;8.70;90.70;;;;;;5072312;28;20489;-77
2022/11/24 05:52:36;;;;;;;7.57;5.55;;;8.70;90.50;;;;;;5075436;28;20024;-77
2022/11/24 05:55:03;;;;;;;8.48;5.63;;;8.70;90.50;;;;;;5065542;28;20064;-76
2022/11/24 05:57:29;;;;;;;8.45;5.10;;;8.80;90.60;;;;;;5069528;28;20342;-76
2022/11/24 05:59:54;;;;;;;6.55;4.70;;;8.80;90.50;;;;;;5065231;28;20047;-77
2022/11/24 06:02:20;;;;;;;6.82;5.15;;;8.80;90.40;;;;;;5075165;28;20027;-77
2022/11/24 06:04:46;;;;;;;7.18;5.30;;;8.90;90.40;;;;;;5068179;28;20024;-77
2022/11/24 06:07:12;;;;;;;7.30;5.03;;;8.90;90.00;;;;;;5064713;28;20033;-77
2022/11/24 06:09:40;;;;;;;7.75;5.57;;;8.80;90.20;;;;;;5060769;28;20044;-76
2022/11/24 06:12:06;;;;;;;6.55;4.57;;;8.80;90.30;;;;;;5061431;28;20106;-76
2022/11/24 06:14:32;;;;;;;6.97;5.00;;;8.90;90.30;;;;;;5068159;28;20024;-76
2022/11/24 06:16:58;;;;;;;6.78;4.82;;;8.90;90.30;;;;;;5066548;28;20025;-78
2022/11/24 06:19:24;;;;;;;6.75;5.00;;;8.90;90.10;;;;;;5074113;28;20111;-77
2022/11/24 06:21:49;;;;;;;7.53;4.82;;;8.80;90.00;;;;;;5069447;28;20116;-76
2022/11/24 06:24:15;;;;;;;7.10;5.85;;;8.90;90.10;;;;;;5069880;28;20039;-76
2022/11/24 06:26:41;;;;;;;6.10;4.80;;;8.90;90.20;;;;;;5058791;28;20500;-76
2022/11/24 06:29:07;;;;;;;6.75;4.70;;;8.90;90.10;;;;;;5067628;28;20064;-80
2022/11/24 06:31:32;;;;;;;7.47;4.78;;;8.90;90.00;;;;;;5072460;28;20086;-80
2022/11/24 06:33:59;;;;;;;6.45;4.25;;;8.90;89.90;;;;;;5066527;28;20418;-79
2022/11/24 06:36:26;;;;;;;7.72;5.07;;;8.90;89.40;;;;;;5066778;28;20023;-81
2022/11/24 06:38:53;;;;;;;7.03;4.63;;;8.70;88.70;;;;;;5062329;28;20028;-80
2022/11/24 06:41:18;;;;;;;5.45;4.03;;;8.70;89.60;;;;;;5064034;28;20040;-80
2022/11/24 06:43:45;;;;;;;6.00;4.57;;;8.60;89.70;;;;;;5066557;28;20033;-77
2022/11/24 06:46:11;;;;;;;6.93;5.00;;;8.60;89.70;;;;;;5072169;28;20036;-80
2022/11/24 06:48:37;;;;;;;6.32;4.40;;;8.60;90.00;;;;;;5067232;28;20452;-77
2022/11/24 06:51:07;;;;;;;6.13;4.57;;;8.60;90.00;;;;;;5074912;28;20055;-76
2022/11/24 06:53:37;;;;;;;;;;;8.60;89.80;;;;;;5079604;28;20443;-76
2022/11/24 06:56:08;;;;;;;6.43;4.68;;;8.60;89.60;;;;;;5079519;28;19915;-76
2022/11/24 06:58:34;;;;;;;7.85;5.03;;;8.60;89.60;;;;;;5057159;28;20033;-80
2022/11/24 07:01:26;;;;;;;6.32;4.28;;;8.50;89.80;;;;;;5073649;28;20093;-79
2022/11/24 07:03:53;;;;;;;6.22;4.28;;;8.40;90.10;;;;;;5052194;28;20021;-79
2022/11/24 07:06:20;;;;;;;8.85;5.13;;;8.40;90.20;;;;;;5042303;28;20036;-80
2022/11/24 07:08:46;;;;;;;11.65;5.75;;;8.40;90.20;;;;;;5074251;28;20059;-78
2022/11/24 07:11:20;;;;;;;8.90;5.95;;;8.20;90.20;;;;;;5073775;28;20128;-80
2022/11/24 07:13:46;;;;;;;10.38;5.82;;;8.30;90.40;;;;;;5053919;28;20369;-78
2022/11/24 07:16:22;;;;;;;9.68;6.10;;;8.40;90.50;;;;;;5071827;28;20036;-81
2022/11/24 07:18:50;;;;;;;7.75;4.40;;;8.50;90.40;;;;;;5070267;28;20056;-82
2022/11/24 07:21:16;;;;;;;5.90;4.50;;;8.50;90.30;;;;;;5072884;28;20110;-81
2022/11/24 07:23:42;;;;;;;6.57;4.35;;;8.60;90.20;;;;;;5066648;28;20021;-81
2022/11/24 07:26:09;;;;;;;7.00;4.72;;;8.70;90.00;;;;;;5071485;28;20495;-81
2022/11/24 07:28:36;;;;;;;9.13;4.55;;;8.80;89.90;;;;;;5074044;28;20016;-79
2022/11/24 07:31:10;;;;;;;8.52;5.15;;;8.80;89.60;;;;;;5074019;28;20033;-79
2022/11/24 07:33:36;;;;;;;9.35;6.32;;;8.90;89.40;;;;;;5072157;28;20036;-79
2022/11/24 07:36:03;;;;;;;9.65;6.00;;;8.90;89.40;;;;;;5069364;28;20037;-79
2022/11/24 07:38:30;;;;;;;8.63;5.90;;;8.90;89.40;;;;;;5074288;28;20078;-80
2022/11/24 07:41:05;;;;;;;11.18;6.70;;;8.80;89.50;;;;;;5074421;28;20044;-80
2022/11/24 07:43:31;;;;;;;8.25;5.32;;;8.90;89.50;;;;;;5063799;28;20013;-79
2022/11/24 07:45:57;;;;;;;9.98;6.00;;;8.90;89.60;;;;;;5073498;28;20052;-79
2022/11/24 07:48:23;;;;;;;8.95;5.78;;;9.00;89.50;;;;;;5073596;28;20060;-79
2022/11/24 07:50:49;;;;;;;10.30;5.82;;;9.00;89.40;;;;;;5073735;28;20025;-78
2022/11/24 07:53:15;;;;;;;7.95;5.43;;;9.00;89.30;;;;;;5070929;28;20480;-80
2022/11/24 07:55:41;;;;;;;7.90;5.47;;;9.10;89.30;;;;;;5055706;28;20188;-79
2022/11/24 07:58:07;;;;;;;7.43;5.07;;;9.10;89.40;;;;;;5072962;28;20111;-78
2022/11/24 08:00:32;;;;;;;9.45;5.95;;;9.20;89.30;;;;;;5074318;28;20071;-78
2022/11/24 08:02:58;;;;;;;9.32;5.30;;;9.30;89.20;;;;;;5074010;28;20021;-78
2022/11/24 08:05:24;;;;;;;8.57;5.60;;;9.30;89.20;;;;;;5073031;28;20032;-79
2022/11/24 08:07:49;;;;;;;8.48;5.78;;;9.40;89.10;;;;;;5054820;28;20465;-78
2022/11/24 08:10:16;;;;;;;10.15;5.85;;;9.40;89.10;;;;;;5054846;28;20111;-79
2022/11/24 08:12:41;;;;;;;8.93;5.97;;;9.40;89.10;;;;;;5076136;28;20051;-79
2022/11/24 08:15:08;;;;;;;23.02;4.82;;;9.50;88.20;;;;;;5076370;28;20028;-79
2022/11/24 08:17:34;;;;;;;9.35;5.38;;;9.50;89.00;;;;;;5073057;28;20063;-78
2022/11/24 08:19:59;;;;;;;7.00;4.88;;;9.50;88.90;;;;;;5073006;28;20068;-79
2022/11/24 08:22:25;;;;;;;10.40;5.32;;;9.50;89.00;;;;;;5072984;28;20036;-78
2022/11/24 08:24:51;;;;;;;7.18;5.93;;;9.60;89.10;;;;;;5073599;28;20404;-81
2022/11/24 08:27:17;;;;;;;10.07;5.88;;;9.60;88.70;;;;;;5072637;28;20447;-80
2022/11/24 08:29:43;;;;;;;8.65;5.95;;;9.70;88.90;;;;;;5073069;28;20392;-81
2022/11/24 08:32:10;;;;;;;6.97;4.60;;;9.90;89.00;;;;;;5073237;28;20028;-81
2022/11/24 08:34:36;;;;;;;8.07;4.80;;;10.00;88.90;;;;;;5074226;28;20807;-80
2022/11/24 08:37:03;;;;;;;6.53;5.10;;;10.20;88.80;;;;;;5072772;28;20036;-80
2022/11/24 08:39:29;;;;;;;10.82;6.43;;;10.40;88.70;;;;;;5072654;28;20033;-80
2022/11/24 08:41:55;;;;;;;11.13;5.57;;;10.40;86.70;;;;;;5072520;28;20491;-81
2022/11/24 08:44:21;;;;;;;6.80;4.75;;;10.50;87.80;;;;;;5072725;28;20024;-80
2022/11/24 08:46:47;;;;;;;7.20;4.88;;;10.60;88.10;;;;;;5071066;28;20028;-80
2022/11/24 08:49:15;;;;;;;6.65;4.72;;;10.70;87.90;;;;;;5069419;28;20032;-77
2022/11/24 08:51:42;;;;;;;8.95;5.07;;;10.70;87.80;;;;;;5072779;28;20438;-78
2022/11/24 08:54:09;;;;;;;7.75;4.90;;;10.80;87.80;;;;;;5072274;28;20025;-78
2022/11/24 08:56:34;;;;;;;6.38;4.88;;;10.90;87.70;;;;;;5072154;28;20493;-77
2022/11/24 08:59:00;;;;;;;8.27;5.78;;;10.90;87.60;;;;;;5054752;28;20085;-78
2022/11/24 09:01:27;;;;;;;7.75;4.50;;;10.90;86.20;;;;;;5071598;28;20036;-78
2022/11/24 09:03:52;;;;;;;7.78;5.53;;;10.90;87.20;;;;;;5072063;28;20166;-78
2022/11/24 09:06:22;;;;;;;7.05;4.82;;;10.90;87.40;;;;;;5071922;28;20100;-78
2022/11/24 09:08:48;;;;;;;8.88;4.63;;;11.00;87.70;;;;;;5054124;28;20028;-78
2022/11/24 09:11:15;;;;;;;7.10;4.70;;;11.10;87.80;;;;;;5071843;28;20032;-78
2022/11/24 09:13:41;;;;;;;8.60;5.53;;;11.10;87.60;;;;;;5053600;28;20127;-78
2022/11/24 09:16:15;;;;;;;8.48;6.30;;;11.20;87.50;;;;;;5072112;28;20024;-78
2022/11/24 09:18:41;;;;;;;8.38;5.15;;;11.20;87.60;;;;;;5072499;28;20051;-77
2022/11/24 09:21:08;;;;;;;11.60;5.15;;;11.20;87.40;;;;;;5072133;28;20040;-77
2022/11/24 09:23:34;;;;;;;7.53;5.47;;;11.20;87.70;;;;;;5071759;28;20055;-77
2022/11/24 09:26:09;;;;;;;9.07;5.13;;;11.30;87.90;;;;;;5072066;28;20017;-77
2022/11/24 09:28:35;;;;;;;7.50;5.15;;;11.40;88.00;;;;;;5071952;28;20115;-77
2022/11/24 09:31:05;;;;;;;8.07;5.15;;;11.60;88.00;;;;;;5072264;28;20104;-77
2022/11/24 09:33:31;;;;;;;;;;;11.50;87.00;;;;;;5072614;28;20033;-77
2022/11/24 09:35:57;;;;;;;13.65;6.40;;;11.50;86.60;;;;;;5072184;28;19908;-77
2022/11/24 09:38:23;;;;;;;8.55;4.93;;;11.50;87.50;;;;;;5072534;28;20040;-77
2022/11/24 09:40:49;;;;;;;10.43;5.13;;;11.60;87.80;;;;;;5071657;28;20036;-77
2022/11/24 09:43:38;;;;;;;11.30;5.93;;;11.60;87.70;;;;;;5072344;28;20115;-77
2022/11/24 09:46:14;;;;;;;11.00;4.47;;;11.70;86.80;;;;;;5072225;28;20060;-77
2022/11/24 09:48:42;;;;;;;6.38;4.78;;;11.90;87.30;;;;;;5072522;28;20043;-77
2022/11/24 09:51:13;;;;;;;7.40;4.38;;;11.90;86.40;;;;;;5072341;28;20037;-77
2022/11/24 09:53:39;;;;;;;10.13;4.55;;;12.00;86.60;;;;;;5063986;28;20033;-77
2022/11/24 09:56:17;;;;;;;7.60;4.50;;;12.10;86.60;;;;;;5072127;28;20043;-77
2022/11/24 09:58:47;;;;;;;10.98;4.65;;;12.10;86.20;;;;;;5072010;28;20372;-77
2022/11/24 10:01:26;;;;;;;8.15;4.57;;;12.20;85.90;;;;;;5072001;28;20131;-77
2022/11/24 10:03:53;;;;;;;7.10;4.75;;;12.20;85.50;;;;;;5071744;28;20025;-77
2022/11/24 10:06:29;;;;;;;5.57;4.38;;;12.30;84.90;;;;;;5071961;28;20029;-77
2022/11/24 10:09:42;;;;;;;6.38;4.60;;;12.40;85.60;;;;;;5069634;28;20025;-77
2022/11/24 10:12:19;;;;;;;5.35;4.05;;;12.60;85.50;;;;;;4962578;28;20035;-78
2022/11/24 10:15:15;;;;;;;7.10;3.53;;;12.80;85.30;;;;;;4970749;28;20023;-78
2022/11/24 10:18:08;;;;;;;9.82;4.20;;;13.00;87.70;;;;;;5043367;28;20392;-84
2022/11/24 10:20:58;;;;;;;5.88;3.85;;;13.40;88.10;;;;;;5072591;28;20501;-77
2022/11/24 10:23:54;;;;;;;5.43;3.78;;;13.70;83.60;;;;;;5072150;28;20032;-79
2022/11/24 10:26:47;;;;;;;6.65;3.70;;;13.80;79.90;;;;;;5075839;28;20039;-80
2022/11/24 10:29:22;;;;;;;5.90;3.15;;;14.10;80.40;;;;;;5056351;28;20490;-80
2022/11/24 10:31:53;;;;;;;8.77;3.35;;;14.30;83.40;;;;;;5075428;28;20028;-81
2022/11/24 10:34:45;;;;;;;4.32;3.55;;;14.60;82.60;;;;;;5061728;28;20059;-79
2022/11/24 10:37:17;;;;;;;5.78;3.10;;;14.80;75.60;;;;;;5087386;28;20319;-80
2022/11/24 10:39:53;;;;;;;6.03;3.40;;;14.90;78.80;;;;;;5076409;28;20514;-81
2022/11/24 10:42:30;;;;;;;7.43;2.80;;;15.10;80.20;;;;;;5087704;28;20024;-79
2022/11/24 10:45:10;;;;;;;5.35;3.83;;;15.30;79.90;;;;;;5076895;28;20048;-77
2022/11/24 10:47:36;;;;;;;6.70;3.23;;;15.60;77.00;;;;;;5063532;28;20020;-79
2022/11/24 10:50:18;;;;;;;5.10;3.78;;;15.70;77.10;;;;;;5068715;28;20036;-78
2022/11/24 10:52:50;;;;;;;20.88;5.00;;;15.80;75.40;;;;;;5090979;28;20024;-78
2022/11/24 10:55:16;;;;;;;6.50;3.10;;;15.90;77.80;;;;;;5077577;28;20090;-81
2022/11/24 10:57:42;;;;;;;6.13;3.67;;;16.10;76.30;;;;;;5075209;28;20028;-80
2022/11/24 11:00:17;;;;;;;4.72;3.08;;;16.30;75.80;;;;;;5074833;28;20035;-83
2022/11/24 11:02:43;;;;;;;4.90;3.08;;;16.50;76.80;;;;;;5059536;28;20036;-83
2022/11/24 11:05:40;;;;;;;4.93;2.75;;;16.50;73.80;;;;;;5067080;28;20021;-82
2022/11/24 11:08:15;;;;;;;4.13;2.63;;;16.50;72.20;;;;;;5057073;28;20032;-82
2022/11/24 11:10:42;;;;;;;4.82;3.72;;;16.50;75.70;;;;;;5067888;28;20028;-82
2022/11/24 11:13:28;;;;;;;8.02;3.60;;;16.80;72.60;;;;;;5074626;28;20055;-81
2022/11/24 11:15:57;;;;;;;5.82;3.97;;;16.90;74.60;;;;;;5058765;28;20036;-81
2022/11/24 11:18:31;;;;;;;4.10;3.08;;;16.70;71.40;;;;;;5066824;28;20037;-81
2022/11/24 11:21:02;;;;;;;6.93;4.20;;;16.90;75.00;;;;;;5055106;28;20523;-81
2022/11/24 11:23:32;;;;;;;4.50;3.50;;;17.10;69.60;;;;;;5063227;28;20067;-81
2022/11/24 11:26:22;;;;;;;11.52;4.53;;;17.00;70.10;;;;;;5070975;28;20052;-81
2022/11/24 11:28:56;;;;;;;;;;;17.10;69.30;;;;;;5062803;28;20047;-81
2022/11/24 11:31:22;;;;;;;4.97;3.38;;;17.20;73.50;;;;;;5066798;28;19932;-82
2022/11/24 11:34:10;;;;;;;4.85;3.67;;;18.30;72.60;;;;;;5062991;28;20033;-82
2022/11/24 11:36:42;;;;;;;4.00;3.60;;;19.80;70.80;;;;;;5068614;28;20112;-82
2022/11/24 11:39:26;;;;;;;5.95;3.75;;;21.30;66.80;;;;;;5070348;28;20098;-80
2022/11/24 11:41:59;;;;;;;7.90;4.03;;;22.50;63.60;;;;;;5066544;28;20024;-79
2022/11/24 11:44:31;;;;;;;5.38;3.90;;;23.60;59.60;;;;;;5067493;28;20056;-79
2022/11/24 11:46:59;;;;;;;6.72;4.05;;;24.40;56.90;;;;;;5070287;28;20029;-80
2022/11/24 11:49:25;;;;;;;4.55;3.92;;;25.10;52.90;;;;;;5070969;28;20017;-80
2022/11/24 11:52:06;;;;;;;6.53;5.03;;;25.20;53.40;;;;;;5058908;28;20027;-79
2022/11/24 11:54:44;;;;;;;7.65;4.55;;;25.80;51.90;;;;;;5069374;28;20039;-80
2022/11/24 11:57:18;;;;;;;6.72;4.45;;;26.40;49.90;;;;;;5062798;28;20033;-80
2022/11/24 12:00:03;;;;;;;7.03;5.20;;;26.80;46.40;;;;;;5063558;28;20029;-79
2022/11/24 12:02:57;;;;;;;6.20;5.60;;;26.60;46.50;;;;;;5047286;28;20499;-80
2022/11/24 12:05:40;;;;;;;5.32;4.15;;;26.60;45.20;;;;;;5058015;28;20025;-80
2022/11/24 12:08:37;;;;;;;6.03;4.35;;;26.30;46.40;;;;;;5065886;28;20109;-81
2022/11/24 12:12:00;;;;;;;5.18;4.28;;;26.60;47.00;;;;;;5072942;28;20115;-80
2022/11/24 12:15:01;;;;;;;6.03;4.70;;;26.80;46.30;;;;;;4989116;28;20117;-81
2022/11/24 12:17:44;;;;;;;5.22;4.53;;;27.00;46.20;;;;;;5017098;28;20033;-82
2022/11/24 12:20:28;;;;;;;4.50;3.95;;;26.80;43.60;;;;;;5063420;28;20039;-80
2022/11/24 12:23:19;;;;;;;5.07;4.05;;;26.70;45.20;;;;;;5059892;28;20043;-80
2022/11/24 12:26:08;;;;;;;7.07;4.32;;;26.70;45.70;;;;;;5070801;28;20479;-80
2022/11/24 12:28:42;;;;;;;8.82;4.68;;;26.60;44.90;;;;;;5067215;28;20346;-81
2022/11/24 12:31:17;;;;;;;4.47;4.03;;;26.40;46.20;;;;;;5054577;28;20381;-80
2022/11/24 12:34:19;;;;;;;11.32;4.70;;;26.30;46.40;;;;;;5065890;28;20478;-80
2022/11/24 12:36:45;;;;;;;7.63;5.03;;;26.20;46.90;;;;;;5064052;28;20055;-80
2022/11/24 12:39:46;;;;;;;5.75;4.60;;;26.00;47.90;;;;;;5065148;28;20492;-80
2022/11/24 12:42:17;;;;;;;6.97;4.43;;;26.00;47.10;;;;;;5022590;28;20576;-77
2022/11/24 12:45:07;;;;;;;7.47;4.95;;;25.90;47.40;;;;;;5071074;28;20040;-77
2022/11/24 12:48:14;;;;;;;5.85;4.75;;;25.70;44.90;;;;;;5071142;28;20487;-81
2022/11/24 12:50:44;;;;;;;6.53;5.18;;;24.80;44.40;;;;;;5071256;28;20039;-80
2022/11/24 12:53:17;;;;;;;6.23;4.87;;;24.20;47.90;;;;;;5069948;28;20400;-80
2022/11/24 12:55:44;;;;;;;6.25;4.75;;;24.40;47.90;;;;;;5051498;28;20082;-80
2022/11/24 12:58:36;;;;;;;6.65;4.80;;;24.20;47.60;;;;;;5066035;28;20083;-79
2022/11/24 13:01:21;;;;;;;6.47;5.10;;;23.90;45.80;;;;;;5070293;28;20044;-80
2022/11/24 13:03:58;;;;;;;5.47;4.70;;;23.10;48.10;;;;;;5049155;28;20032;-78
2022/11/24 13:06:31;;;;;;;4.95;3.95;;;23.50;47.60;;;;;;5045563;28;20362;-77
2022/11/24 13:08:56;;;;;;;5.28;4.43;;;22.90;47.80;;;;;;5063302;28;20511;-81
2022/11/24 13:11:22;;;;;;;5.30;4.45;;;22.50;48.60;;;;;;5043592;28;20056;-81